Mebane, North Carolina
Current Conditions -  °F | °C
As of 11:54 AM on Thursday 18 Dec 2014 (Local Time) from KBUY Reporting Station
Broken Clouds Broken Clouds  
Wind Chill: 44°   Ceiling: 11000
Heat Index: 47°   Visibility: 10mi
Dew Point: 22°   Wind: 7mph
Humidity: 37%   Direction: 10°N
Pressure: 30.13"   Gusts: NA
Location:  36.1°N, 79.27°W
Report Text: KBUY 181654Z AUTO 01006KT 10SM BKN110 08/M06 A3013 RMK AO2 SLP206 T00831056
Loading
Personal Weather Stations






























Interactive Weather Map New forecast layout! Learn more

10-Day Weather Forecast

Advertisements
Track Severe Weather on mobile